createdAt,value
2022-08-04T00:03:56.402Z,2.70
2022-08-04T00:09:08.583Z,2.97
2022-08-04T00:14:16.459Z,3.20
2022-08-04T00:19:31.303Z,3.00
2022-08-04T00:24:35.220Z,2.80
2022-08-04T00:29:40.036Z,2.83
2022-08-04T00:34:42.971Z,2.40
2022-08-04T00:39:46.740Z,2.95
2022-08-04T00:45:06.630Z,2.70
2022-08-04T00:50:10.537Z,2.25
2022-08-04T00:55:34.701Z,2.53
2022-08-04T01:00:48.666Z,2.60
2022-08-04T01:06:18.661Z,2.45
2022-08-04T01:11:56.547Z,2.30
2022-08-04T01:17:13.850Z,2.92
2022-08-04T01:22:34.248Z,2.83
2022-08-04T01:27:42.335Z,2.67
2022-08-04T01:33:02.880Z,3.22
2022-08-04T01:38:31.955Z,2.58
2022-08-04T01:48:43.299Z,2.50
2022-08-04T01:53:46.386Z,2.22
2022-08-04T01:58:49.242Z,2.20
2022-08-04T02:04:21.358Z,2.20
2022-08-04T02:09:30.670Z,2.50
2022-08-04T02:14:46.304Z,2.20
2022-08-04T02:20:30.948Z,2.45
2022-08-04T02:26:04.267Z,2.00
2022-08-04T02:31:31.242Z,2.38
2022-08-04T02:36:42.298Z,2.20
2022-08-04T02:41:45.442Z,2.10
2022-08-04T02:46:49.097Z,2.30
2022-08-04T02:51:54.153Z,2.13
2022-08-04T02:56:58.686Z,2.30
2022-08-04T03:02:01.868Z,2.30
2022-08-04T03:07:26.028Z,2.75
2022-08-04T03:13:04.580Z,2.40
2022-08-04T03:18:28.014Z,2.78
2022-08-04T03:24:05.946Z,2.83
2022-08-04T03:29:36.456Z,2.70
2022-08-04T03:35:22.640Z,2.80
2022-08-04T03:41:16.314Z,3.58
2022-08-04T03:46:54.650Z,2.80
2022-08-04T03:52:27.649Z,3.58
2022-08-04T03:57:32.624Z,3.28
2022-08-04T04:03:28.885Z,3.30
2022-08-04T04:09:08.083Z,3.78
2022-08-04T04:14:43.382Z,3.53
2022-08-04T04:19:51.760Z,3.47
2022-08-04T04:25:01.174Z,3.03
2022-08-04T04:30:41.214Z,3.53
2022-08-04T04:35:55.633Z,3.65
2022-08-04T04:41:06.885Z,4.35
2022-08-04T04:46:15.180Z,3.60
2022-08-04T04:51:17.897Z,3.45
2022-08-04T04:56:30.095Z,3.67
2022-08-04T05:02:07.358Z,3.47
2022-08-04T05:07:21.720Z,3.40
2022-08-04T05:14:31.754Z,3.30
2022-08-04T05:17:59.649Z,3.28
2022-08-04T05:23:09.585Z,3.45
2022-08-04T05:28:22.492Z,3.53
2022-08-04T05:33:33.846Z,3.65
2022-08-04T05:38:38.922Z,3.60
2022-08-04T05:43:45.261Z,3.60
2022-08-04T05:48:48.396Z,3.92
2022-08-04T05:53:52.311Z,3.80
2022-08-04T05:58:55.916Z,2.88
2022-08-04T06:04:01.085Z,2.70
2022-08-04T06:09:03.490Z,2.90
2022-08-04T06:14:09.778Z,3.38
2022-08-04T06:20:03.025Z,2.78
2022-08-04T06:24:40.333Z,2.83
2022-08-04T06:29:50.675Z,2.33
2022-08-04T06:34:57.920Z,2.80
2022-08-04T06:40:02.691Z,2.65
2022-08-04T06:45:20.337Z,2.80
2022-08-04T06:51:32.926Z,2.60
2022-08-04T06:55:48.561Z,2.60
2022-08-04T07:00:52.373Z,2.50
2022-08-04T07:05:55.612Z,2.50
2022-08-04T07:10:59.353Z,2.33
2022-08-04T07:16:02.623Z,2.20
2022-08-04T07:21:05.472Z,2.28
2022-08-04T07:26:12.255Z,1.98
2022-08-04T07:31:33.421Z,2.00
2022-08-04T07:36:50.459Z,1.85
2022-08-04T07:41:55.039Z,2.00
2022-08-04T07:46:57.716Z,2.10
2022-08-04T07:52:02.462Z,2.28
2022-08-04T07:57:05.262Z,2.28
2022-08-04T08:02:07.691Z,2.10
2022-08-04T08:07:10.175Z,2.65
2022-08-04T08:12:36.467Z,2.13
2022-08-04T08:17:59.786Z,2.10
2022-08-04T08:23:02.339Z,2.05
2022-08-04T08:28:05.945Z,1.80
2022-08-04T08:33:10.636Z,2.20
2022-08-04T08:38:16.563Z,2.20
2022-08-04T08:44:05.342Z,2.40
2022-08-04T08:50:00.988Z,2.20
2022-08-04T08:55:24.770Z,2.30
2022-08-04T09:00:46.609Z,1.90
2022-08-04T09:06:05.876Z,2.35
2022-08-04T09:11:18.427Z,1.98
2022-08-04T09:16:25.555Z,2.13
2022-08-04T09:21:40.187Z,2.28
2022-08-04T09:26:45.357Z,1.77
2022-08-04T09:32:07.150Z,2.00
2022-08-04T09:37:45.904Z,2.13
2022-08-04T09:43:03.456Z,1.67
2022-08-04T09:48:14.704Z,1.48
2022-08-04T09:53:42.829Z,2.20
2022-08-04T10:03:53.633Z,1.20
2022-08-04T10:09:33.049Z,1.50
2022-08-04T10:14:53.505Z,1.67
2022-08-04T10:20:10.925Z,1.25
2022-08-04T10:26:06.837Z,1.75
2022-08-04T10:31:10.376Z,1.45
2022-08-04T10:36:18.022Z,1.15
2022-08-04T10:41:51.383Z,1.48
2022-08-04T10:47:06.058Z,1.20
2022-08-04T10:52:31.711Z,1.20
2022-08-04T10:57:39.899Z,1.58
2022-08-04T11:03:00.179Z,2.95
2022-08-04T11:08:11.427Z,1.67
2022-08-04T11:13:22.158Z,2.60
2022-08-04T11:18:48.819Z,1.70
2022-08-04T11:24:02.083Z,1.60
2022-08-04T11:29:16.728Z,2.80
2022-08-04T11:34:23.243Z,1.20
2022-08-04T11:39:33.038Z,1.40
2022-08-04T11:45:07.100Z,1.42
2022-08-04T11:50:15.255Z,1.58
2022-08-04T11:55:22.009Z,1.38
2022-08-04T12:00:28.837Z,1.10
2022-08-04T12:05:42.384Z,1.40
2022-08-04T12:11:14.403Z,1.38
2022-08-04T12:16:23.241Z,1.00
2022-08-04T12:21:45.004Z,1.20
2022-08-04T12:27:05.469Z,1.30
2022-08-04T12:33:04.457Z,1.20
2022-08-04T12:38:28.631Z,1.60
2022-08-04T12:43:43.477Z,1.63
2022-08-04T12:48:47.715Z,1.40
2022-08-04T12:53:52.596Z,1.60
2022-08-04T12:59:03.002Z,1.10
2022-08-04T13:04:16.114Z,1.40
2022-08-04T13:09:21.625Z,1.23
2022-08-04T13:14:29.406Z,1.40
2022-08-04T13:19:41.242Z,1.10
2022-08-04T13:25:18.248Z,1.30
2022-08-04T13:30:07.949Z,1.50
2022-08-04T13:35:15.068Z,1.20
2022-08-04T13:40:22.754Z,1.63
2022-08-04T13:45:34.945Z,1.65
2022-08-04T13:50:38.824Z,1.35
2022-08-04T13:55:41.511Z,1.13
2022-08-04T14:00:48.594Z,1.58
2022-08-04T14:06:14.091Z,1.30
2022-08-04T14:12:06.566Z,1.35
2022-08-04T14:17:04.581Z,1.70
2022-08-04T14:22:07.070Z,1.15
2022-08-04T14:27:09.498Z,1.50
2022-08-04T14:32:14.811Z,1.13
2022-08-04T14:37:23.440Z,1.40
2022-08-04T14:42:55.377Z,1.23
2022-08-04T14:47:59.532Z,1.27
2022-08-04T14:53:12.698Z,1.17
2022-08-04T14:58:38.887Z,1.52
2022-08-04T15:09:00.177Z,1.42
2022-08-04T15:14:03.859Z,1.20
2022-08-04T15:19:08.279Z,1.05
2022-08-04T15:24:11.093Z,1.30
2022-08-04T15:29:21.476Z,1.25
2022-08-04T15:34:24.380Z,1.20
2022-08-04T15:39:29.527Z,1.50
2022-08-04T15:44:49.918Z,1.40
2022-08-04T15:50:12.900Z,1.10
2022-08-04T15:55:35.099Z,1.63
2022-08-04T16:00:50.932Z,1.13
2022-08-04T16:05:53.523Z,1.20
2022-08-04T16:10:55.894Z,1.25
2022-08-04T16:16:03.267Z,1.08
2022-08-04T16:21:18.193Z,1.15
2022-08-04T16:26:55.004Z,1.58
2022-08-04T16:32:22.195Z,1.17
2022-08-04T16:37:36.097Z,1.35
2022-08-04T16:42:38.838Z,1.30
2022-08-04T16:47:50.834Z,1.40
2022-08-04T16:52:54.953Z,1.67
2022-08-04T16:58:01.822Z,1.90
2022-08-04T17:03:12.570Z,1.88
2022-08-04T17:08:30.871Z,1.65
2022-08-04T17:14:03.759Z,1.70
2022-08-04T17:18:58.685Z,1.83
2022-08-04T17:24:15.573Z,1.70
2022-08-04T17:29:20.268Z,1.52
2022-08-04T17:34:26.923Z,1.52
2022-08-04T17:39:38.129Z,1.92
2022-08-04T17:44:44.576Z,4.25
2022-08-04T17:49:53.154Z,2.00
2022-08-04T17:55:02.929Z,1.90
2022-08-04T18:00:06.223Z,2.28
2022-08-04T18:05:11.461Z,2.00
2022-08-04T18:10:33.158Z,2.20
2022-08-04T18:15:44.207Z,2.70
2022-08-04T18:20:50.095Z,2.63
2022-08-04T18:25:52.773Z,2.20
2022-08-04T18:36:35.478Z,4.20
2022-08-04T18:42:00.803Z,2.88
2022-08-04T18:47:19.595Z,3.00
2022-08-04T18:52:25.598Z,2.42
2022-08-04T18:57:59.070Z,2.13
2022-08-04T19:02:54.753Z,2.22
2022-08-04T19:08:32.823Z,2.58
2022-08-04T19:13:26.932Z,2.10
2022-08-04T19:18:30.386Z,2.20
2022-08-04T19:24:10.129Z,2.60
2022-08-04T19:28:59.337Z,2.67
2022-08-04T19:34:05.161Z,2.88
2022-08-04T19:39:11.643Z,3.00
2022-08-04T19:44:14.344Z,2.65
2022-08-04T19:50:02.629Z,2.90
2022-08-04T19:54:41.774Z,2.28
2022-08-04T19:59:48.152Z,2.42
2022-08-04T20:04:53.133Z,2.45
2022-08-04T20:09:55.483Z,3.30
2022-08-04T20:14:59.863Z,2.88
2022-08-04T20:20:02.844Z,3.85
2022-08-04T20:25:36.127Z,3.45
2022-08-04T20:30:34.341Z,3.72
2022-08-04T20:35:46.003Z,3.83
2022-08-04T20:41:03.426Z,3.72
2022-08-04T20:46:17.758Z,3.95
2022-08-04T20:51:31.488Z,3.58
2022-08-04T20:56:34.656Z,3.55
2022-08-04T21:01:37.062Z,2.95
2022-08-04T21:06:42.391Z,2.95
2022-08-04T21:11:52.565Z,3.33
2022-08-04T21:16:56.456Z,4.18
2022-08-04T21:21:59.322Z,4.18
2022-08-04T21:27:06.837Z,3.60
2022-08-04T21:32:12.531Z,3.72
2022-08-04T21:37:16.330Z,3.78
2022-08-04T21:42:38.044Z,3.80
2022-08-04T21:47:46.734Z,3.80
2022-08-04T21:53:11.909Z,3.10
2022-08-04T21:58:14.293Z,3.45
2022-08-04T22:03:51.765Z,3.10
2022-08-04T22:08:43.449Z,3.25
2022-08-04T22:13:52.925Z,3.30
2022-08-04T22:19:13.960Z,3.60
2022-08-04T22:24:16.304Z,3.28
2022-08-04T22:29:18.817Z,3.70
2022-08-04T22:34:21.303Z,3.63
2022-08-04T22:39:27.708Z,3.28
2022-08-04T22:44:32.534Z,3.75
2022-08-04T22:49:38.305Z,3.40
2022-08-04T22:54:41.807Z,2.90
2022-08-04T22:59:44.188Z,2.88
2022-08-04T23:04:54.093Z,2.90
2022-08-04T23:09:56.691Z,2.30
2022-08-04T23:14:59.937Z,3.08
2022-08-04T23:20:02.552Z,2.85
2022-08-04T23:25:05.444Z,3.05
2022-08-04T23:30:08.500Z,2.63
2022-08-04T23:35:10.893Z,2.80
2022-08-04T23:40:34.014Z,2.50
2022-08-04T23:46:07.867Z,2.35
2022-08-04T23:51:14.079Z,2.53
2022-08-04T23:56:19.856Z,2.60
